Terminal Aerodrome Forecast
Issued by NWS Sioux Falls, SD

Home | Current Version | Previous Version | Graphics & Text | Print | Product List | Glossary Off
Versions: 1 2 3 4 5 6 7 8 9 10 11 12 13 14 15 16 17 18 19 20

000
FTUS43 KFSD 242331
TAFFSD
TAF
KFSD 242331Z 2500/2524 16010KT P6SM OVC006
     FM250200 18008KT 3SM BR OVC004
     FM251100 31015G22KT P6SM SCT025
     FM251400 32020G30KT P6SM BKN025
     FM251800 32020G30KT P6SM BKN035=

USA.gov is the U.S. government's official web portal to all federal, state and local government web resources and services.